Time;durP1;ratioP1;P1;durP2;ratioP2;P2;SDS_P1;SDS_P2;PMS_P1;PMS_P2;Temp;Humidity;BMP_temperature;BMP_pressure;BME280_temperature;BME280_humidity;BME280_pressure;Samples;Min_cycle;Max_cycle;Signal;HPM_P1;HPM_P2
2022/09/25 00:00:41;;;;;;;;;;;;;;;6.79;92.67;100833.59;5053221;28;20047;-74
2022/09/25 00:03:08;;;;;;;4.83;3.10;;;;;;;6.75;92.07;100837.50;5052536;28;19921;-73
2022/09/25 00:05:39;;;;;;;2.90;2.60;;;;;;;6.71;92.58;100836.94;5018378;28;20539;-77
2022/09/25 00:08:05;;;;;;;3.17;2.60;;;;;;;6.65;92.97;100826.03;5053235;28;20515;-75
2022/09/25 00:10:31;;;;;;;3.80;2.37;;;;;;;6.65;92.39;100815.44;5052747;28;20068;-74
2022/09/25 00:12:57;;;;;;;8.27;3.17;;;;;;;6.70;92.47;100823.84;5052658;28;20033;-74
2022/09/25 00:15:23;;;;;;;3.40;3.10;;;;;;;6.79;92.33;100817.72;5052618;28;20099;-75
2022/09/25 00:17:48;;;;;;;4.83;2.37;;;;;;;6.82;92.17;100817.44;5052601;28;20033;-76
2022/09/25 00:20:22;;;;;;;2.63;2.33;;;;;;;6.77;91.89;100817.03;5052627;28;20067;-76
2022/09/25 00:22:49;;;;;;;3.00;2.43;;;;;;;6.71;92.25;100812.28;5052637;28;20043;-73
2022/09/25 00:25:16;;;;;;;5.10;2.50;;;;;;;6.82;92.12;100820.09;5052032;28;20520;-74
2022/09/25 00:27:43;;;;;;;3.73;2.47;;;;;;;6.75;91.78;100805.75;5052376;28;20029;-74
2022/09/25 00:30:10;;;;;;;4.13;2.60;;;;;;;6.77;91.76;100806.44;5052368;28;20029;-76
2022/09/25 00:32:37;;;;;;;2.87;2.67;;;;;;;6.82;91.57;100806.84;5051969;28;20480;-75
2022/09/25 00:35:03;;;;;;;3.70;2.80;;;;;;;6.84;92.14;100810.19;5034297;28;20550;-77
2022/09/25 00:37:32;;;;;;;2.50;2.30;;;;;;;6.80;91.63;100806.16;5051738;28;20507;-75
2022/09/25 00:39:58;;;;;;;2.97;2.30;;;;;;;6.80;91.95;100814.09;5052245;28;20484;-74
2022/09/25 00:42:23;;;;;;;2.87;2.60;;;;;;;6.74;92.06;100810.19;5052440;28;20051;-76
2022/09/25 00:45:04;;;;;;;3.60;2.40;;;;;;;6.77;91.97;100804.63;5052047;28;20032;-74
2022/09/25 00:47:39;;;;;;;3.13;2.63;;;;;;;6.80;91.37;100817.59;5052217;28;20033;-74
2022/09/25 00:50:15;;;;;;;3.73;2.27;;;;;;;6.67;91.85;100803.78;5052046;28;20166;-75
2022/09/25 00:52:41;;;;;;;3.47;2.63;;;;;;;6.70;91.25;100803.50;5034273;28;20047;-73
2022/09/25 00:55:08;;;;;;;2.50;2.30;;;;;;;6.70;91.63;100800.03;5051986;28;20031;-74
2022/09/25 00:57:37;;;;;;;3.23;2.40;;;;;;;6.69;91.96;100791.25;5051848;28;20055;-76
2022/09/25 01:00:08;;;;;;;2.83;2.53;;;;;;;6.71;91.82;100807.00;5034037;28;20457;-75
2022/09/25 01:02:38;;;;;;;3.87;2.37;;;;;;;6.69;91.80;100801.00;5051985;28;20043;-73
2022/09/25 01:05:10;;;;;;;3.80;2.67;;;;;;;6.66;91.51;100799.47;5052023;28;20546;-76
2022/09/25 01:07:39;;;;;;;2.50;2.30;;;;;;;6.59;92.25;100797.47;5051977;28;20396;-75
2022/09/25 01:10:07;;;;;;;;;;;;;;;6.65;92.90;100796.94;5052344;28;20043;-73
2022/09/25 01:12:39;;;;;;;2.90;2.60;;;;;;;6.62;92.27;100799.84;5053008;28;19916;-76
2022/09/25 01:15:07;;;;;;;21.17;2.33;;;;;;;6.63;92.45;100796.22;5055687;28;20534;-75
2022/09/25 01:17:39;;;;;;;3.43;2.60;;;;;;;6.65;92.45;100794.28;5055753;28;20492;-74
2022/09/25 01:20:59;;;;;;;4.40;2.40;;;;;;;6.67;92.51;100792.38;5055881;28;20037;-74
2022/09/25 01:23:51;;;;;;;3.50;3.20;;;;;;;6.64;92.22;100798.72;5055706;28;20131;-77
2022/09/25 01:26:30;;;;;;;4.17;2.20;;;;;;;6.60;93.23;100786.75;5055937;28;20045;-74
2022/09/25 01:29:18;;;;;;;3.57;2.30;;;;;;;6.61;92.42;100791.06;5055602;28;20129;-74
2022/09/25 01:32:23;;;;;;;5.60;2.38;;;;;;;6.66;92.82;100796.81;5054393;28;20040;-73
2022/09/25 01:34:53;;;;;;;4.07;2.60;;;;;;;6.60;92.96;100792.03;5053858;28;20045;-74
2022/09/25 01:37:31;;;;;;;3.73;2.10;;;;;;;6.65;92.50;100789.84;5055439;28;20086;-74
2022/09/25 01:40:23;;;;;;;2.50;2.30;;;;;;;6.55;92.72;100778.41;5055407;28;20037;-73
2022/09/25 01:43:00;;;;;;;2.97;2.43;;;;;;;6.63;92.75;100790.94;5055504;28;20029;-76
2022/09/25 01:45:41;;;;;;;3.20;2.40;;;;;;;6.68;92.44;100794.03;5055309;28;20043;-76
2022/09/25 01:48:10;;;;;;;4.37;2.37;;;;;;;6.66;92.53;100791.53;5055270;28;20033;-73
2022/09/25 01:50:57;;;;;;;3.60;3.15;;;;;;;6.69;92.76;100785.13;5055051;28;20029;-73
2022/09/25 01:53:33;;;;;;;2.80;2.20;;;;;;;6.55;92.95;100775.75;5055310;28;20083;-75
2022/09/25 01:56:05;;;;;;;3.83;2.27;;;;;;;6.74;92.76;100791.66;5037246;28;20373;-73
2022/09/25 01:58:42;;;;;;;2.97;2.60;;;;;;;6.68;92.56;100765.75;5055087;28;20060;-74
2022/09/25 02:01:21;;;;;;;3.13;2.63;;;;;;;6.81;92.82;100782.19;5054928;28;20517;-76
2022/09/25 02:04:03;;;;;;;3.00;2.50;;;;;;;6.84;92.43;100784.56;5037763;28;20040;-74
2022/09/25 02:06:31;;;;;;;4.70;2.50;;;;;;;6.82;92.56;100780.38;5058702;28;20052;-73
2022/09/25 02:09:06;;;;;;;3.70;2.60;;;;;;;6.82;92.62;100772.44;5057319;28;20078;-74
2022/09/25 02:11:37;;;;;;;2.83;2.27;;;;;;;6.83;93.22;100777.59;5054676;28;20045;-74
2022/09/25 02:14:29;;;;;;;3.60;3.00;;;;;;;6.86;93.63;100770.34;5055194;28;20041;-75
2022/09/25 02:16:57;;;;;;;2.93;2.40;;;;;;;6.82;92.99;100781.22;5054764;28;20041;-73
2022/09/25 02:22:24;;;;;;;4.43;2.80;;;;;;;6.74;94.49;100765.19;5054631;28;20072;-74
2022/09/25 02:24:56;;;;;;;3.30;2.97;;;;;;;6.49;93.75;100726.03;5053977;28;20041;-76
2022/09/25 02:27:23;;;;;;;2.90;2.40;;;;;;;6.76;94.34;100760.59;5054476;28;20388;-74
2022/09/25 02:29:49;;;;;;;3.60;2.47;;;;;;;6.80;94.21;100769.94;5054358;28;20507;-73
2022/09/25 02:32:19;;;;;;;3.33;2.43;;;;;;;6.83;95.02;100772.31;5036661;28;20447;-76
2022/09/25 02:34:45;;;;;;;4.17;2.47;;;;;;;6.82;95.24;100769.78;5054968;28;20502;-74
2022/09/25 02:37:15;;;;;;;4.20;2.73;;;;;;;6.81;95.41;100760.19;5054811;28;20037;-74
2022/09/25 02:39:43;;;;;;;3.13;2.50;;;;;;;6.79;95.53;100765.63;5054399;28;20033;-74
2022/09/25 02:42:29;;;;;;;6.70;3.03;;;;;;;6.78;96.08;100761.31;5054528;28;20067;-76
2022/09/25 02:45:19;;;;;;;3.47;2.50;;;;;;;6.81;96.69;100746.94;5054276;28;20355;-76
2022/09/25 02:48:15;;;;;;;6.27;3.50;;;;;;;6.73;96.92;100738.88;5054130;28;20041;-74
2022/09/25 02:50:53;;;;;;;4.40;2.33;;;;;;;6.75;96.40;100742.22;5036428;28;20079;-75
2022/09/25 02:53:42;;;;;;;5.90;2.70;;;;;;;6.75;96.84;100736.94;5053988;28;20044;-73
2022/09/25 02:56:12;;;;;;;3.00;2.70;;;;;;;6.76;96.64;100738.59;5054149;28;20514;-73
2022/09/25 02:58:44;;;;;;;3.90;3.00;;;;;;;6.80;96.89;100729.41;5053903;28;20144;-73
2022/09/25 03:01:17;;;;;;;4.27;3.37;;;;;;;6.82;97.11;100736.22;5053806;28;20044;-77
2022/09/25 03:03:48;;;;;;;4.00;2.87;;;;;;;6.83;97.19;100723.81;5053848;28;20182;-74
2022/09/25 03:06:14;;;;;;;3.73;2.90;;;;;;;6.77;96.63;100719.09;5054144;28;20062;-75
2022/09/25 03:08:45;;;;;;;3.47;2.97;;;;;;;6.79;97.19;100719.78;5053761;28;20397;-74
2022/09/25 03:11:14;;;;;;;2.50;2.17;;;;;;;6.83;97.56;100713.22;5053730;28;20079;-73
2022/09/25 03:13:40;;;;;;;;;;;;;;;6.89;96.96;100723.25;5054298;28;20041;-73
2022/09/25 03:16:12;;;;;;;6.00;3.23;;;;;;;6.84;97.42;100720.19;5053414;28;19916;-76
2022/09/25 03:18:38;;;;;;;4.00;3.20;;;;;;;6.83;97.85;100721.19;5053298;28;20116;-72
2022/09/25 03:21:03;;;;;;;2.80;2.53;;;;;;;6.80;97.99;100713.53;5053553;28;20395;-75
2022/09/25 03:23:30;;;;;;;4.73;2.90;;;;;;;6.75;98.62;100710.47;5053514;28;20036;-77
2022/09/25 03:25:55;;;;;;;5.80;2.80;;;;;;;6.74;99.71;100709.63;5053557;28;20408;-73
2022/09/25 03:28:24;;;;;;;3.63;3.22;;;;;;;6.77;99.22;100719.09;5053736;28;20095;-73
2022/09/25 03:30:58;;;;;;;4.60;3.23;;;;;;;6.73;100.00;100712.41;5053530;28;20522;-74
2022/09/25 03:33:24;;;;;;;3.37;2.97;;;;;;;6.67;100.00;100707.69;5053404;28;20033;-74
2022/09/25 03:35:59;;;;;;;4.77;3.00;;;;;;;6.72;100.00;100711.56;5052843;28;20124;-72
2022/09/25 03:38:24;;;;;;;4.30;2.80;;;;;;;6.68;100.00;100706.69;5035779;28;20036;-76
2022/09/25 03:40:50;;;;;;;8.27;3.50;;;;;;;6.70;100.00;100712.69;5053291;28;20078;-75
2022/09/25 03:43:15;;;;;;;5.83;3.47;;;;;;;6.70;100.00;100708.22;5053161;28;20040;-72
2022/09/25 03:45:41;;;;;;;6.77;3.23;;;;;;;6.69;100.00;100705.72;5053184;28;20048;-74
2022/09/25 03:48:06;;;;;;;8.10;3.73;;;;;;;6.63;100.00;100695.66;5040169;28;20029;-73
2022/09/25 03:50:32;;;;;;;7.83;3.83;;;;;;;6.55;100.00;100688.44;5055055;28;20072;-75
2022/09/25 03:52:57;;;;;;;8.93;3.37;;;;;;;6.67;100.00;100707.69;5054284;28;20025;-75
2022/09/25 03:55:24;;;;;;;5.13;3.40;;;;;;;6.57;100.00;100685.66;5038623;28;20033;-76
2022/09/25 03:57:50;;;;;;;3.93;2.73;;;;;;;6.67;100.00;100702.38;5053284;28;20043;-75
2022/09/25 04:00:16;;;;;;;5.87;3.50;;;;;;;6.71;100.00;100703.78;5053054;28;20515;-75
2022/09/25 04:02:42;;;;;;;6.93;3.50;;;;;;;6.68;100.00;100698.75;5052796;28;20045;-74
2022/09/25 04:05:08;;;;;;;4.37;2.93;;;;;;;6.50;100.00;100672.13;5053124;28;20039;-74
2022/09/25 04:07:34;;;;;;;5.90;3.40;;;;;;;6.68;100.00;100691.66;5035070;28;20443;-75
2022/09/25 04:10:00;;;;;;;3.97;3.10;;;;;;;6.70;100.00;100697.66;5052538;28;20511;-74
2022/09/25 04:12:25;;;;;;;4.17;2.80;;;;;;;6.69;100.00;100689.84;5052430;28;20037;-73
2022/09/25 04:14:51;;;;;;;4.00;3.47;;;;;;;6.68;100.00;100704.06;5052576;28;20047;-77
2022/09/25 04:17:17;;;;;;;3.80;2.90;;;;;;;6.66;100.00;100700.72;5052540;28;20048;-75
2022/09/25 04:19:42;;;;;;;4.63;2.53;;;;;;;6.68;100.00;100694.31;5052392;28;20048;-74
2022/09/25 04:22:08;;;;;;;4.97;2.60;;;;;;;6.68;100.00;100689.00;5034473;28;20037;-76
2022/09/25 04:24:49;;;;;;;5.30;3.67;;;;;;;6.73;100.00;100692.06;5052423;28;20028;-75
2022/09/25 04:27:21;;;;;;;5.13;3.30;;;;;;;6.75;100.00;100691.94;5054907;28;20037;-72
2022/09/25 04:29:49;;;;;;;5.40;3.93;;;;;;;6.71;100.00;100683.44;5060582;28;20132;-75
2022/09/25 04:35:00;;;;;;;4.27;3.27;;;;;;;6.69;100.00;100685.38;5053477;28;20400;-75
2022/09/25 04:37:26;;;;;;;3.93;3.40;;;;;;;6.66;100.00;100679.53;5053434;28;20040;-74
2022/09/25 04:39:55;;;;;;;3.97;3.13;;;;;;;6.58;100.00;100676.72;5054869;28;20111;-75
2022/09/25 04:42:23;;;;;;;4.57;3.20;;;;;;;6.63;100.00;100685.09;5052537;28;20056;-76
2022/09/25 04:44:53;;;;;;;8.50;3.60;;;;;;;6.61;100.00;100682.56;5052559;28;20043;-76
2022/09/25 04:47:24;;;;;;;3.77;3.00;;;;;;;6.62;100.00;100680.78;5052104;28;20064;-74
2022/09/25 04:49:50;;;;;;;7.70;4.00;;;;;;;6.59;100.00;100684.53;5053346;28;20116;-74
2022/09/25 04:52:16;;;;;;;7.43;4.17;;;;;;;6.58;100.00;100684.66;5052231;28;20127;-77
2022/09/25 04:54:42;;;;;;;4.30;2.73;;;;;;;6.56;100.00;100689.28;5034094;28;20040;-73
2022/09/25 04:57:17;;;;;;;3.73;2.90;;;;;;;6.52;100.00;100681.59;5051876;28;20077;-75
2022/09/25 04:59:49;;;;;;;4.00;3.60;;;;;;;6.55;100.00;100682.31;5052259;28;20150;-74
2022/09/25 05:02:39;;;;;;;4.37;3.07;;;;;;;6.59;100.00;100686.34;5052045;28;20048;-75
2022/09/25 05:05:05;;;;;;;6.80;3.30;;;;;;;6.50;100.00;100667.69;5051935;28;20040;-75
2022/09/25 05:07:31;;;;;;;5.40;3.30;;;;;;;6.66;100.00;100679.53;5034224;28;20037;-75
2022/09/25 05:09:56;;;;;;;9.50;3.63;;;;;;;6.61;100.00;100679.09;5057499;28;20040;-73
2022/09/25 05:12:22;;;;;;;3.33;3.03;;;;;;;6.56;100.00;100674.22;5054520;28;20043;-73
2022/09/25 05:14:47;;;;;;;5.90;3.53;;;;;;;6.66;100.00;100684.84;5035116;28;20048;-74
2022/09/25 05:17:16;;;;;;;3.87;3.17;;;;;;;6.61;100.00;100677.28;5051830;28;20040;-76
2022/09/25 05:19:41;;;;;;;4.40;3.15;;;;;;;6.66;100.00;100674.25;5053526;28;20065;-76
2022/09/25 05:22:06;;;;;;;5.80;3.00;;;;;;;6.64;100.00;100676.16;5052091;28;20079;-73
2022/09/25 05:24:32;;;;;;;4.83;4.00;;;;;;;6.65;100.00;100668.13;5051698;28;20037;-74
2022/09/25 05:26:58;;;;;;;6.77;3.60;;;;;;;6.73;100.00;100678.00;5052593;28;20033;-76
2022/09/25 05:29:24;;;;;;;6.43;3.90;;;;;;;6.73;100.00;100680.66;5036063;28;20133;-75
2022/09/25 05:31:53;;;;;;;5.67;3.53;;;;;;;6.66;100.00;100663.66;5052871;28;20041;-79
2022/09/25 05:34:19;;;;;;;6.30;3.60;;;;;;;6.78;100.00;100684.53;5051630;28;20025;-74
2022/09/25 05:36:45;;;;;;;4.80;3.27;;;;;;;6.59;100.00;100636.06;5050365;28;20061;-74
2022/09/25 05:39:10;;;;;;;4.73;3.43;;;;;;;6.79;100.00;100666.84;5051666;28;20043;-77
2022/09/25 05:41:36;;;;;;;4.37;3.60;;;;;;;6.84;100.00;100678.69;5051555;28;20033;-77
2022/09/25 05:44:08;;;;;;;3.87;3.47;;;;;;;6.78;100.00;100668.66;5051374;28;20037;-74
2022/09/25 05:46:34;;;;;;;6.90;3.93;;;;;;;6.80;100.00;100672.00;5033809;28;20110;-75
2022/09/25 05:49:00;;;;;;;6.23;3.40;;;;;;;6.79;100.00;100665.03;5051620;28;20519;-74
2022/09/25 05:51:26;;;;;;;4.37;3.53;;;;;;;6.84;100.00;100667.25;5051472;28;20057;-78
2022/09/25 05:53:54;;;;;;;5.37;3.07;;;;;;;6.86;100.00;100665.31;5051740;28;20118;-73
2022/09/25 05:56:23;;;;;;;3.80;3.20;;;;;;;6.93;100.00;100665.56;5051259;28;20194;-77
2022/09/25 05:58:48;;;;;;;3.33;3.03;;;;;;;6.90;100.00;100656.09;5033523;28;20048;-75
2022/09/25 06:01:14;;;;;;;5.97;3.80;;;;;;;6.95;100.00;100667.13;5037010;28;20047;-75
2022/09/25 06:03:39;;;;;;;4.97;3.27;;;;;;;6.97;100.00;100665.16;5055098;28;20033;-74
2022/09/25 06:06:05;;;;;;;4.63;3.10;;;;;;;6.96;100.00;100652.91;5055002;28;20032;-75
2022/09/25 06:08:31;;;;;;;4.63;3.20;;;;;;;6.97;100.00;100659.88;5055085;28;20040;-76
2022/09/25 06:10:59;;;;;;;5.07;3.77;;;;;;;7.02;100.00;100664.75;5054829;28;20029;-76
2022/09/25 06:13:25;;;;;;;5.40;3.53;;;;;;;7.06;100.00;100664.31;5055169;28;20076;-74
2022/09/25 06:15:51;;;;;;;5.20;4.10;;;;;;;7.08;100.00;100657.06;5054891;28;20175;-76
2022/09/25 06:18:20;;;;;;;4.97;3.53;;;;;;;7.04;100.00;100647.72;5054791;28;20040;-75
2022/09/25 06:20:46;;;;;;;3.83;3.33;;;;;;;7.21;100.00;100662.03;5055025;28;20064;-75
2022/09/25 06:23:11;;;;;;;5.23;3.87;;;;;;;7.24;100.00;100663.59;5055562;28;20032;-73
2022/09/25 06:25:37;;;;;;;4.90;3.60;;;;;;;7.32;100.00;100661.03;5055341;28;20377;-74
2022/09/25 06:28:03;;;;;;;4.70;3.80;;;;;;;7.34;100.00;100659.09;5055694;28;20064;-75
2022/09/25 06:30:34;;;;;;;4.47;3.23;;;;;;;7.32;100.00;100659.22;5055774;28;20033;-76
2022/09/25 06:33:24;;;;;;;3.97;3.07;;;;;;;7.30;100.00;100657.72;5055134;28;20060;-74
2022/09/25 06:35:50;;;;;;;3.20;2.73;;;;;;;7.29;100.00;100656.88;5054406;28;20045;-76
2022/09/25 06:38:17;;;;;;;5.20;3.00;;;;;;;7.30;100.00;100652.41;5054147;28;20510;-74
2022/09/25 06:40:42;;;;;;;7.70;3.87;;;;;;;7.33;100.00;100654.75;5054290;28;20484;-77
2022/09/25 06:43:17;;;;;;;5.03;3.13;;;;;;;7.33;100.00;100649.47;5054503;28;20095;-75
2022/09/25 06:45:42;;;;;;;4.43;3.20;;;;;;;7.38;100.00;100663.13;5054292;28;20040;-73
2022/09/25 06:48:13;;;;;;;4.57;3.60;;;;;;;7.39;100.00;100662.97;5054021;28;20037;-74
2022/09/25 06:50:45;;;;;;;5.10;2.70;;;;;;;7.40;100.00;100654.03;5053943;28;20067;-75
2022/09/25 06:53:12;;;;;;;4.83;3.60;;;;;;;7.46;100.00;100657.91;5053928;28;20382;-75
2022/09/25 06:55:38;;;;;;;3.03;2.50;;;;;;;7.45;100.00;100651.78;5054264;28;20071;-73
2022/09/25 06:58:05;;;;;;;4.97;2.90;;;;;;;7.51;100.00;100654.81;5053709;28;20551;-76
2022/09/25 07:00:32;;;;;;;3.50;2.33;;;;;;;7.53;100.00;100647.59;5055737;28;20144;-75
2022/09/25 07:05:43;;;;;;;3.60;2.83;;;;;;;7.59;100.00;100653.13;5054127;28;20037;-75
2022/09/25 07:08:11;;;;;;;3.80;3.17;;;;;;;7.52;100.00;100649.41;5054009;28;20488;-76
2022/09/25 07:10:37;;;;;;;3.47;3.08;;;;;;;7.56;100.00;100648.13;5054475;28;20041;-75
2022/09/25 07:13:03;;;;;;;4.20;2.50;;;;;;;7.56;100.00;100658.72;5053881;28;20091;-74
2022/09/25 07:15:29;;;;;;;4.93;3.00;;;;;;;7.57;100.00;100648.97;5053675;28;20087;-74
2022/09/25 07:17:54;;;;;;;3.90;2.23;;;;;;;7.61;100.00;100650.34;5054023;28;20037;-76
2022/09/25 07:20:21;;;;;;;3.17;2.37;;;;;;;7.69;100.00;100653.91;5053862;28;20488;-73
2022/09/25 07:22:46;;;;;;;2.77;2.23;;;;;;;7.68;100.00;100638.16;5058834;28;20025;-72
2022/09/25 07:25:12;;;;;;;6.13;2.50;;;;;;;7.80;100.00;100650.22;5055891;28;20051;-72
2022/09/25 07:27:38;;;;;;;4.70;2.20;;;;;;;7.78;100.00;100645.06;5054267;28;20033;-71
2022/09/25 07:30:05;;;;;;;4.43;2.30;;;;;;;7.83;100.00;100635.88;5060941;28;20128;-73
2022/09/25 07:32:30;;;;;;;5.17;2.40;;;;;;;7.88;100.00;100642.41;5059251;28;20037;-74
2022/09/25 07:34:57;;;;;;;2.87;2.10;;;;;;;7.82;100.00;100637.69;5061999;28;20075;-73
2022/09/25 07:37:24;;;;;;;2.23;1.90;;;;;;;7.87;100.00;100651.34;5050268;28;20032;-75
2022/09/25 07:39:49;;;;;;;1.90;1.77;;;;;;;7.86;100.00;100648.84;5046867;28;20024;-77
2022/09/25 07:42:15;;;;;;;3.77;2.20;;;;;;;7.88;100.00;100646.88;5044525;28;20041;-77
2022/09/25 07:44:41;;;;;;;2.40;1.80;;;;;;;7.92;100.00;100648.22;5041589;28;20067;-73
2022/09/25 07:47:07;;;;;;;2.50;2.27;;;;;;;7.92;100.00;100645.59;5043085;28;20069;-74
2022/09/25 07:49:36;;;;;;;2.30;2.10;;;;;;;7.93;100.00;100660.50;5040839;28;20034;-73
2022/09/25 07:52:05;;;;;;;2.77;2.00;;;;;;;7.88;100.00;100646.88;5023565;28;20452;-75
2022/09/25 07:54:37;;;;;;;2.50;2.30;;;;;;;7.94;100.00;100652.41;5024471;28;20079;-73
2022/09/25 07:57:03;;;;;;;3.33;2.33;;;;;;;7.93;100.00;100645.44;5040815;28;20139;-73
2022/09/25 07:59:28;;;;;;;3.43;2.27;;;;;;;8.00;100.00;100656.28;5042546;28;20072;-72
2022/09/25 08:01:54;;;;;;;3.63;1.97;;;;;;;7.99;100.00;100649.31;5042880;28;20119;-72
2022/09/25 08:04:19;;;;;;;3.77;2.67;;;;;;;8.04;100.00;100657.63;5041222;28;20060;-72
2022/09/25 08:06:45;;;;;;;4.00;3.67;;;;;;;8.08;100.00;100659.00;5041105;28;20062;-74
2022/09/25 08:09:11;;;;;;;6.43;3.50;;;;;;;8.16;100.00;100661.78;5041734;28;20037;-75
2022/09/25 08:11:37;;;;;;;6.77;3.80;;;;;;;8.20;100.00;100663.13;5039934;28;20040;-74
2022/09/25 08:14:02;;;;;;;4.37;2.93;;;;;;;8.14;100.00;100653.13;5041305;28;20043;-74
2022/09/25 08:16:28;;;;;;;2.60;1.87;;;;;;;8.19;100.00;100660.63;5043946;28;20033;-75
2022/09/25 08:18:53;;;;;;;2.90;2.23;;;;;;;8.19;100.00;100650.84;5037805;28;20120;-72
2022/09/25 08:21:19;;;;;;;2.77;2.07;;;;;;;8.29;100.00;100662.22;5042986;28;20032;-74
2022/09/25 08:23:51;;;;;;;2.40;2.03;;;;;;;8.29;100.00;100659.56;5038216;28;20100;-73
2022/09/25 08:26:17;;;;;;;3.57;1.83;;;;;;;8.15;100.00;100644.19;5041567;28;20507;-75
2022/09/25 08:28:43;;;;;;;2.50;1.87;;;;;;;8.25;100.00;100658.22;5039899;28;20029;-74
2022/09/25 08:31:09;;;;;;;1.50;1.40;;;;;;;8.18;100.00;100657.16;5038228;28;20129;-75
2022/09/25 08:33:35;;;;;;;2.07;1.87;;;;;;;8.13;100.00;100650.63;5026697;28;20037;-75
2022/09/25 08:36:02;;;;;;;2.10;1.73;;;;;;;8.12;100.00;100654.28;5042552;28;20120;-76
2022/09/25 08:38:31;;;;;;;2.70;2.03;;;;;;;7.92;100.00;100617.25;5044109;28;20043;-75
2022/09/25 08:41:08;;;;;;;2.20;2.00;;;;;;;8.22;100.00;100660.34;5041649;28;20060;-74
2022/09/25 08:43:44;;;;;;;6.43;1.83;;;;;;;8.30;100.00;100657.75;5047465;28;20120;-75
2022/09/25 08:49:09;;;;;;;3.47;1.83;;;;;;;8.33;100.00;100652.16;5045405;28;20525;-74
2022/09/25 08:51:47;;;;;;;1.83;1.53;;;;;;;8.28;100.00;100659.72;5032042;28;20041;-75
2022/09/25 08:54:22;;;;;;;1.70;1.60;;;;;;;8.09;100.00;100652.72;5015768;28;20044;-74
2022/09/25 08:56:52;;;;;;;1.80;1.70;;;;;;;8.07;100.00;100652.03;5032220;28;20067;-79
2022/09/25 08:59:35;;;;;;;1.40;1.30;;;;;;;8.01;100.00;100649.97;5032436;28;20107;-78
2022/09/25 09:02:13;;;;;;;2.87;1.57;;;;;;;7.99;100.00;100654.59;5032319;28;20123;-78
2022/09/25 09:04:56;;;;;;;1.63;1.35;;;;;;;8.00;100.00;100662.41;5032701;28;20088;-76
2022/09/25 09:07:48;;;;;;;2.43;1.80;;;;;;;7.98;100.00;100659.06;5032304;28;20048;-74
2022/09/25 09:10:20;;;;;;;4.13;1.83;;;;;;;8.02;100.00;100655.13;5029415;28;20547;-74
2022/09/25 09:12:53;;;;;;;2.13;1.80;;;;;;;8.10;100.00;100658.88;5014393;28;20122;-74
2022/09/25 09:15:28;;;;;;;2.00;1.73;;;;;;;8.05;100.00;100656.66;5031827;28;20361;-75
2022/09/25 09:17:54;;;;;;;2.17;1.57;;;;;;;7.99;100.00;100654.59;5031455;28;20037;-76
2022/09/25 09:20:31;;;;;;;2.10;1.70;;;;;;;7.96;100.00;100654.91;5031561;28;20025;-77
2022/09/25 09:22:58;;;;;;;5.63;1.83;;;;;;;7.98;100.00;100653.78;5032007;28;20029;-74
2022/09/25 09:25:57;;;;;;;1.70;1.60;;;;;;;8.01;100.00;100656.13;5014873;28;20116;-76
2022/09/25 09:29:07;;;;;;;2.17;1.60;;;;;;;7.98;100.00;100642.31;5027848;28;20412;-75
2022/09/25 09:31:50;;;;;;;1.77;1.67;;;;;;;8.13;100.00;100662.06;5032215;28;20034;-74
2022/09/25 09:34:21;;;;;;;2.00;1.87;;;;;;;8.20;100.00;100652.53;5033955;28;20037;-76
2022/09/25 09:36:51;;;;;;;1.50;1.40;;;;;;;8.25;100.00;100658.22;5017988;28;20045;-73
2022/09/25 09:39:39;;;;;;;2.25;2.05;;;;;;;8.26;100.00;100657.22;5036655;28;20045;-76
2022/09/25 09:42:39;;;;;;;1.80;1.60;;;;;;;8.33;100.00;100653.00;5018391;28;20504;-72
2022/09/25 09:45:10;;;;;;;3.33;2.03;;;;;;;8.36;100.00;100657.19;5073745;28;20090;-75
2022/09/25 09:47:45;;;;;;;1.80;1.70;;;;;;;8.43;100.00;100662.75;5075986;28;20254;-74
2022/09/25 09:50:35;;;;;;;2.07;1.70;;;;;;;8.56;100.00;100655.22;5076431;28;20036;-75
2022/09/25 09:53:06;;;;;;;1.80;1.70;;;;;;;8.60;100.00;100659.25;5076378;28;20068;-74
2022/09/25 09:55:55;;;;;;;1.50;1.40;;;;;;;8.56;100.00;100653.41;5076260;28;20060;-75
2022/09/25 09:58:43;;;;;;;2.13;1.73;;;;;;;8.59;100.00;100654.91;5078072;28;20131;-72
2022/09/25 10:01:20;;;;;;;1.55;1.45;;;;;;;8.60;100.00;100649.44;5079271;28;20530;-73
2022/09/25 10:03:52;;;;;;;3.60;2.20;;;;;;;8.42;100.00;100615.97;5081558;28;20048;-74
2022/09/25 10:06:22;;;;;;;2.60;1.90;;;;;;;8.67;100.00;100650.53;5055319;28;20079;-73
2022/09/25 10:08:47;;;;;;;1.63;1.53;;;;;;;8.64;100.00;100649.97;5042001;28;20029;-72
2022/09/25 10:11:18;;;;;;;1.83;1.73;;;;;;;8.58;100.00;100646.13;5047647;28;20025;-71
2022/09/25 10:13:44;;;;;;;2.67;2.40;;;;;;;8.62;100.00;100652.78;5042537;28;20124;-74
2022/09/25 10:16:12;;;;;;;1.63;1.53;;;;;;;8.66;100.00;100658.63;5028208;28;20068;-72
2022/09/25 10:18:52;;;;;;;3.37;2.13;;;;;;;8.75;100.00;100652.41;5046056;28;20091;-73
2022/09/25 10:21:21;;;;;;;3.13;1.63;;;;;;;8.72;100.00;100658.03;5041276;28;20099;-75
2022/09/25 10:23:48;;;;;;;;;;;;;;;8.79;100.00;100659.09;5046852;28;20065;-72
2022/09/25 10:26:30;;;;;;;1.57;1.47;;;;;;;8.71;100.00;100658.19;5047184;28;19940;-74
2022/09/25 10:29:01;;;;;;;2.10;1.40;;;;;;;8.51;100.00;100620.34;5048277;28;20504;-74
2022/09/25 10:31:38;;;;;;;2.37;1.80;;;;;;;8.68;100.00;100662.00;5043199;28;20033;-75
2022/09/25 10:34:23;;;;;;;1.97;1.70;;;;;;;8.71;100.00;100656.38;5043120;28;20091;-76
2022/09/25 10:36:51;;;;;;;1.90;1.50;;;;;;;8.74;100.00;100666.69;5025822;28;20148;-74
2022/09/25 10:39:33;;;;;;;2.78;1.70;;;;;;;8.67;100.00;100663.81;5028414;28;20047;-74
2022/09/25 10:42:01;;;;;;;6.93;2.07;;;;;;;8.64;100.00;100655.28;5024551;28;20409;-74
2022/09/25 10:44:35;;;;;;;1.47;1.37;;;;;;;8.68;100.00;100667.31;5045253;28;20040;-73
2022/09/25 10:50:13;;;;;;;1.70;1.60;;;;;;;8.65;100.00;100664.91;5050921;28;20519;-74
2022/09/25 10:52:54;;;;;;;2.80;1.50;;;;;;;8.67;100.00;100665.59;5042896;28;20036;-75
2022/09/25 10:55:50;;;;;;;1.63;1.50;;;;;;;8.65;100.00;100668.41;5045194;28;20067;-77
2022/09/25 10:58:41;;;;;;;2.63;1.80;;;;;;;8.69;100.00;100664.50;5044461;28;20068;-76
2022/09/25 11:01:12;;;;;;;3.13;1.70;;;;;;;8.73;100.00;100666.84;5027993;28;20048;-73
2022/09/25 11:03:51;;;;;;;4.77;1.73;;;;;;;8.74;100.00;100677.31;5046013;28;20065;-79
2022/09/25 11:06:19;;;;;;;3.77;2.10;;;;;;;8.74;100.00;100677.31;5049928;28;20095;-74
2022/09/25 11:08:48;;;;;;;2.42;2.13;;;;;;;8.76;100.00;100675.31;5041926;28;20144;-76
2022/09/25 11:11:25;;;;;;;5.43;1.90;;;;;;;8.82;100.00;100677.38;5043569;28;20040;-73
2022/09/25 11:13:54;;;;;;;1.70;1.60;;;;;;;8.63;100.00;100662.41;5025848;28;20527;-75
2022/09/25 11:16:21;;;;;;;2.85;1.83;;;;;;;8.61;100.00;100682.97;5047188;28;20037;-75
2022/09/25 11:19:14;;;;;;;2.30;1.67;;;;;;;8.52;100.00;100681.25;5053540;28;20098;-76
2022/09/25 11:22:03;;;;;;;2.73;1.50;;;;;;;8.49;100.00;100683.38;5032373;28;20040;-74
2022/09/25 11:24:42;;;;;;;1.60;1.50;;;;;;;8.40;100.00;100678.97;5047099;28;20052;-76
2022/09/25 11:27:25;;;;;;;1.60;1.50;;;;;;;8.38;100.00;100682.63;5048436;28;20065;-73
2022/09/25 11:30:11;;;;;;;2.43;1.90;;;;;;;8.43;100.00;100692.78;5042140;28;20037;-76
2022/09/25 11:32:38;;;;;;;3.03;2.23;;;;;;;8.42;100.00;100683.13;5036124;28;20025;-75
2022/09/25 11:35:23;;;;;;;1.80;1.70;;;;;;;8.37;100.00;100686.22;5041960;28;20037;-75
2022/09/25 11:38:09;;;;;;;3.47;2.00;;;;;;;8.33;100.00;100690.16;5044257;28;20048;-75
2022/09/25 11:44:08;;;;;;;2.50;1.73;;;;;;;8.28;100.00;100687.09;5055269;28;20463;-76
2022/09/25 11:47:01;;;;;;;1.97;1.77;;;;;;;8.28;100.00;100691.56;4996596;28;20775;-76
2022/09/25 11:49:33;;;;;;;1.60;1.50;;;;;;;8.29;100.00;100685.28;5021551;28;20444;-74
2022/09/25 11:52:15;;;;;;;3.37;1.87;;;;;;;8.34;100.00;100691.00;5042355;28;20065;-74
2022/09/25 11:55:15;;;;;;;3.07;2.17;;;;;;;8.40;100.00;100689.59;5029423;28;20032;-75
2022/09/25 11:58:17;;;;;;;2.90;1.63;;;;;;;8.47;100.00;100690.66;5047409;28;20504;-73
2022/09/25 12:01:12;;;;;;;1.90;1.70;;;;;;;8.57;100.00;100691.41;5057909;28;20045;-75
2022/09/25 12:04:13;;;;;;;2.07;1.70;;;;;;;8.70;100.00;100702.50;5059403;28;20048;-76
2022/09/25 12:06:52;;;;;;;2.00;1.77;;;;;;;8.72;100.00;100700.53;5029646;28;20045;-76
2022/09/25 12:09:41;;;;;;;3.63;2.17;;;;;;;8.75;100.00;100691.41;5052780;28;20045;-75